Time;durP1;ratioP1;P1;durP2;ratioP2;P2;SDS_P1;SDS_P2;PMS_P1;PMS_P2;Temp;Humidity;BMP_temperature;BMP_pressure;BME280_temperature;BME280_humidity;BME280_pressure;Samples;Min_cycle;Max_cycle;Signal;HPM_P1;HPM_P2
2023/02/04 00:10:55;;;;;;;28.00;13.40;;;;;;;1.79;91.60;100248.92;674066;1264;138948;-83
2023/02/04 00:25:58;;;;;;;24.90;13.00;;;;;;;1.78;91.49;100303.80;671860;1266;138826;-82
2023/02/04 00:41:02;;;;;;;34.30;14.50;;;;;;;1.72;90.42;100356.72;674150;1260;138899;-82
2023/02/04 00:56:06;;;;;;;27.40;11.00;;;;;;;1.68;90.31;100408.64;673970;1265;138164;-83
2023/02/04 01:11:12;;;;;;;21.80;11.40;;;;;;;1.65;90.18;100453.13;674460;1264;139305;-82
2023/02/04 01:26:17;;;;;;;20.20;9.70;;;;;;;1.44;89.94;100491.69;672349;1265;139036;-82
2023/02/04 01:41:21;;;;;;;17.20;8.90;;;;;;;1.28;90.17;100534.98;672981;1263;138968;-82
2023/02/04 01:56:26;;;;;;;16.60;8.50;;;;;;;1.22;89.74;100589.34;671600;1266;140736;-82
2023/02/04 02:11:31;;;;;;;18.10;8.30;;;;;;;1.10;89.69;100649.80;671520;1264;138814;-80
2023/02/04 02:26:35;;;;;;;12.70;6.80;;;;;;;1.08;89.43;100689.52;671171;1265;138627;-80
2023/02/04 02:41:39;;;;;;;10.30;5.90;;;;;;;1.17;89.16;100730.69;673972;1263;138809;-80
2023/02/04 02:56:42;;;;;;;13.90;6.60;;;;;;;1.10;88.79;100775.73;672737;1264;140092;-80
2023/02/04 03:11:45;;;;;;;7.40;4.30;;;;;;;0.92;88.37;100817.29;673957;1274;139148;-82
2023/02/04 03:26:49;;;;;;;5.80;3.60;;;;;;;0.74;88.09;100858.30;671798;1266;139131;-81
2023/02/04 03:41:52;;;;;;;6.70;4.40;;;;;;;0.65;87.01;100908.05;672815;1264;139027;-79
2023/02/04 03:56:56;;;;;;;9.40;4.70;;;;;;;0.51;86.59;100973.76;671904;1265;138143;-80
2023/02/04 04:11:59;;;;;;;7.20;3.90;;;;;;;0.36;85.83;101025.21;670508;1263;138786;-82
2023/02/04 04:27:03;;;;;;;15.00;7.80;;;;;;;0.19;84.94;101045.08;671319;1265;138052;-80
2023/02/04 04:42:06;;;;;;;34.40;15.60;;;;;;;0.04;84.30;101072.02;673135;1264;138913;-80
2023/02/04 04:57:09;;;;;;;107.70;36.50;;;;;;;-0.15;83.71;101107.70;672402;1261;139499;-81
2023/02/04 05:12:12;;;;;;;31.60;14.40;;;;;;;-0.30;83.46;101144.93;674084;1265;139907;-79
2023/02/04 05:27:16;;;;;;;11.70;5.50;;;;;;;-0.23;83.88;101182.20;673489;1263;139425;-80
2023/02/04 05:42:19;;;;;;;12.80;4.20;;;;;;;-0.04;83.93;101217.44;673139;1261;139203;-81
2023/02/04 05:57:22;;;;;;;27.70;9.40;;;;;;;-0.07;83.32;101266.20;673849;1276;139274;-80
2023/02/04 06:12:26;;;;;;;31.80;12.00;;;;;;;0.04;83.24;101280.85;672457;1267;139599;-81
2023/02/04 06:27:29;;;;;;;29.20;12.60;;;;;;;-0.12;82.78;101305.05;676421;1263;139009;-81
2023/02/04 06:42:32;;;;;;;23.60;10.30;;;;;;;-0.06;82.92;101331.54;674515;1264;140317;-81
2023/02/04 06:57:35;;;;;;;34.80;14.80;;;;;;;0.07;82.65;101349.73;672533;1266;139504;-80
2023/02/04 07:12:38;;;;;;;33.50;12.80;;;;;;;0.39;83.01;101380.20;672406;1265;308159;-80
2023/02/04 07:27:42;;;;;;;31.90;12.50;;;;;;;0.64;83.23;101409.81;672526;1261;139632;-82
2023/02/04 07:42:45;;;;;;;74.20;26.50;;;;;;;0.92;84.82;101423.98;673618;1277;138876;-83
2023/02/04 07:57:51;;;;;;;43.80;17.10;;;;;;;1.05;84.82;101442.01;671616;1276;139013;-81
2023/02/04 08:12:54;;;;;;;40.30;15.50;;;;;;;1.27;84.93;101467.90;672497;1264;139362;-82
2023/02/04 08:27:58;;;;;;;141.60;50.60;;;;;;;1.41;85.21;101482.14;674196;1259;139422;-81
2023/02/04 08:43:01;;;;;;;81.00;35.50;;;;;;;1.54;84.96;101507.77;674988;1263;139660;-81
2023/02/04 08:58:06;;;;;;;28.00;12.90;;;;;;;1.85;84.81;101533.89;676261;1264;138951;-82
2023/02/04 09:13:10;;;;;;;31.10;13.80;;;;;;;2.37;84.76;101549.99;678016;1263;139709;-82
2023/02/04 09:28:15;;;;;;;36.30;14.80;;;;;;;2.47;84.46;101564.85;678867;1256;137851;-81
2023/02/04 09:43:24;;;;;;;103.70;37.40;;;;;;;3.16;84.83;101575.72;676751;1256;138788;-80
2023/02/04 09:58:32;;;;;;;21.90;12.90;;;;;;;4.11;82.83;101582.36;679151;1262;138972;-79
2023/02/04 10:13:51;;;;;;;41.20;17.80;;;;;;;3.88;82.38;101580.70;675983;1258;139555;-79
2023/02/04 10:28:58;;;;;;;13.50;6.40;;;;;;;3.78;82.76;101598.04;674585;1258;138744;-81
2023/02/04 10:44:13;;;;;;;14.20;6.70;;;;;;;3.77;82.23;101608.97;672990;1258;139081;-80
2023/02/04 10:59:25;;;;;;;20.70;9.70;;;;;;;3.92;81.84;101628.65;673296;1263;138525;-79
2023/02/04 11:14:29;;;;;;;13.70;7.50;;;;;;;3.63;82.32;101640.29;674553;1260;139755;-80
2023/02/04 11:29:41;;;;;;;49.80;17.60;;;;;;;3.64;82.28;101639.21;677120;1263;138479;-80
2023/02/04 11:44:52;;;;;;;32.00;11.40;;;;;;;4.07;82.29;101649.55;680871;1263;141326;-79
2023/02/04 11:59:55;;;;;;;20.70;8.90;;;;;;;4.03;81.80;101662.48;675502;1263;138870;-80
2023/02/04 12:15:12;;;;;;;26.30;16.70;;;;;;;4.33;80.79;101670.33;674698;1262;138828;-80
2023/02/04 12:30:17;;;;;;;21.10;12.10;;;;;;;4.71;80.79;101688.39;674169;1263;140406;-80
2023/02/04 12:45:20;;;;;;;16.10;7.70;;;;;;;4.40;80.34;101702.80;673309;1263;139189;-79
2023/02/04 13:00:26;;;;;;;23.30;9.20;;;;;;;4.22;79.75;101698.48;674142;1264;140101;-80
2023/02/04 13:15:29;;;;;;;55.20;22.20;;;;;;;5.92;79.24;101717.18;673354;1269;139283;-80
2023/02/04 13:30:33;;;;;;;37.70;15.00;;;;;;;7.31;77.98;101725.98;672515;1262;138976;-80
2023/02/04 13:45:37;;;;;;;19.30;8.00;;;;;;;7.99;72.56;101751.13;672502;1263;139063;-80
2023/02/04 14:00:40;;;;;;;20.40;9.80;;;;;;;5.61;72.49;101764.73;674416;1263;139004;-81
2023/02/04 14:15:43;;;;;;;24.10;11.40;;;;;;;6.79;70.68;101775.51;677501;1261;138663;-80
2023/02/04 14:30:47;;;;;;;33.90;13.60;;;;;;;7.70;66.92;101783.67;677672;1258;139583;-80
2023/02/04 14:45:50;;;;;;;31.40;14.10;;;;;;;4.54;68.50;101792.69;676157;1264;140516;-81
2023/02/04 15:00:54;;;;;;;169.40;52.00;;;;;;;3.57;69.02;101804.34;675033;1260;139397;-82
2023/02/04 15:15:57;;;;;;;89.90;35.20;;;;;;;3.08;70.03;101820.50;673391;1263;139695;-82
2023/02/04 15:31:01;;;;;;;67.50;27.80;;;;;;;2.83;71.23;101841.84;673227;1263;139929;-82
2023/02/04 15:46:04;;;;;;;83.70;35.20;;;;;;;2.46;72.55;101852.27;677595;1260;138528;-83
2023/02/04 16:01:07;;;;;;;97.00;36.30;;;;;;;2.21;73.50;101871.10;676861;1259;139569;-81
2023/02/04 16:16:11;;;;;;;131.50;47.40;;;;;;;2.00;73.37;101889.44;675678;1259;138583;-82
2023/02/04 16:31:14;;;;;;;59.90;23.70;;;;;;;1.75;73.73;101917.70;673837;1261;138635;-81
2023/02/04 16:46:18;;;;;;;65.90;24.20;;;;;;;1.64;73.62;101930.55;674925;1261;138384;-81
2023/02/04 17:01:21;;;;;;;62.50;27.90;;;;;;;1.62;73.81;101939.92;675179;1261;139282;-82
2023/02/04 17:16:26;;;;;;;49.80;20.60;;;;;;;1.38;74.65;101966.16;675912;1270;138826;-82
2023/02/04 17:31:30;;;;;;;127.20;39.40;;;;;;;1.38;75.68;101966.16;676188;1262;139280;-82
2023/02/04 17:46:33;;;;;;;69.40;27.90;;;;;;;1.40;75.96;101972.52;677390;1261;138852;-82
2023/02/04 18:01:40;;;;;;;76.00;30.90;;;;;;;1.47;76.63;101998.22;677530;1260;138929;-81
2023/02/04 18:16:45;;;;;;;42.80;16.90;;;;;;;1.49;76.91;102012.30;675922;1260;139278;-81
2023/02/04 18:31:52;;;;;;;41.20;15.50;;;;;;;1.48;76.98;102022.84;675644;1262;139064;-81
2023/02/04 18:46:56;;;;;;;63.00;29.20;;;;;;;1.46;76.87;102046.50;674405;1262;139030;-81
2023/02/04 19:01:59;;;;;;;84.80;28.70;;;;;;;1.40;77.44;102064.04;675127;1262;138983;-81
2023/02/04 19:17:06;;;;;;;85.90;29.60;;;;;;;1.24;77.46;102085.77;673787;1271;176063;-81
2023/02/04 19:32:23;;;;;;;163.00;52.30;;;;;;;0.81;77.36;102101.91;674985;1260;138661;-81
2023/02/04 19:47:31;;;;;;;120.50;43.30;;;;;;;0.45;77.38;102123.54;675497;1262;139136;-80
2023/02/04 20:02:38;;;;;;;245.90;83.40;;;;;;;0.16;76.96;102149.12;674370;1261;139526;-81
2023/02/04 20:17:47;;;;;;;345.80;122.50;;;;;;;-0.15;76.99;102171.23;673864;1261;139135;-81
2023/02/04 20:32:54;;;;;;;179.10;68.60;;;;;;;-0.44;76.84;102182.07;674449;1266;140046;-81
2023/02/04 20:53:58;;;;;;;96.80;38.50;;;;;;;-0.73;76.65;102210.73;655603;1308;544878;-82
2023/02/04 21:09:03;;;;;;;213.40;69.70;;;;;;;-0.96;76.29;102239.66;675236;1274;139074;-82
2023/02/04 21:24:07;;;;;;;170.80;56.40;;;;;;;-1.22;76.01;102269.23;673995;1282;139028;-83
2023/02/04 21:39:11;;;;;;;245.30;74.90;;;;;;;-1.33;75.71;102281.31;672670;1277;139206;-83
2023/02/04 21:54:15;;;;;;;150.30;51.00;;;;;;;-1.59;75.33;102295.71;672804;1273;139249;-82
2023/02/04 22:09:18;;;;;;;244.30;82.40;;;;;;;-1.88;75.45;102310.77;674559;1276;139643;-84
2023/02/04 22:24:22;;;;;;;214.00;72.60;;;;;;;-2.21;75.38;102319.78;676955;1268;139159;-84
2023/02/04 22:39:27;;;;;;;145.40;54.10;;;;;;;-2.56;75.03;102325.98;676892;1268;139311;-83
2023/02/04 22:54:31;;;;;;;95.60;37.50;;;;;;;-2.85;74.91;102342.43;676914;1265;139472;-84
2023/02/04 23:09:35;;;;;;;117.10;43.10;;;;;;;-3.19;74.63;102356.93;673381;1265;138856;-83
2023/02/04 23:24:39;;;;;;;135.40;45.70;;;;;;;-3.51;74.55;102350.34;674628;1265;139931;-84
2023/02/04 23:39:43;;;;;;;155.60;49.70;;;;;;;-3.55;74.46;102339.55;672448;1268;139260;-84
2023/02/04 23:54:51;;;;;;;81.60;31.60;;;;;;;-3.78;74.05;102343.22;672775;1268;139607;-84
